createdAt,value
2022-10-22T00:01:41.692Z,13.12
2022-10-22T00:04:08.291Z,13.11
2022-10-22T00:06:35.405Z,13.08
2022-10-22T00:09:02.154Z,13.02
2022-10-22T00:11:28.847Z,13.02
2022-10-22T00:13:55.971Z,13.02
2022-10-22T00:16:22.561Z,13.01
2022-10-22T00:18:49.527Z,13.05
2022-10-22T00:21:16.345Z,13.03
2022-10-22T00:23:43.639Z,13.02
2022-10-22T00:26:11.541Z,13.02
2022-10-22T00:28:38.889Z,13.00
2022-10-22T00:31:06.453Z,13.01
2022-10-22T00:33:33.972Z,13.00
2022-10-22T00:36:00.555Z,12.98
2022-10-22T00:38:27.341Z,13.01
2022-10-22T00:40:54.171Z,12.98
2022-10-22T00:43:21.355Z,12.96
2022-10-22T00:45:47.906Z,12.97
2022-10-22T00:48:24.521Z,12.95
2022-10-22T00:50:56.707Z,12.93
2022-10-22T00:53:28.927Z,12.93
2022-10-22T00:55:56.103Z,12.95
2022-10-22T00:58:26.200Z,12.93
2022-10-22T01:00:53.281Z,12.93
2022-10-22T01:03:19.977Z,12.95
2022-10-22T01:05:56.024Z,12.92
2022-10-22T01:08:28.941Z,12.94
2022-10-22T01:11:12.692Z,12.95
2022-10-22T01:14:03.303Z,12.98
2022-10-22T01:16:53.713Z,12.97
2022-10-22T01:19:41.704Z,12.99
2022-10-22T01:22:21.278Z,12.99
2022-10-22T01:24:53.175Z,13.01
2022-10-22T01:27:19.942Z,13.01
2022-10-22T01:30:03.994Z,13.00
2022-10-22T01:32:36.837Z,12.98
2022-10-22T01:35:09.133Z,12.95
2022-10-22T01:37:43.171Z,12.97
2022-10-22T01:40:11.985Z,12.91
2022-10-22T01:42:38.686Z,12.93
2022-10-22T01:45:13.629Z,12.97
2022-10-22T01:48:09.168Z,12.97
2022-10-22T01:50:58.288Z,12.98
2022-10-22T01:53:40.906Z,12.98
2022-10-22T01:56:19.192Z,13.00
2022-10-22T01:59:15.764Z,12.97
2022-10-22T02:01:54.640Z,12.91
2022-10-22T02:04:34.098Z,12.91
2022-10-22T02:07:05.431Z,12.86
2022-10-22T02:09:33.485Z,12.84
2022-10-22T02:12:03.584Z,12.83
2022-10-22T02:14:31.421Z,12.82
2022-10-22T02:17:00.835Z,12.78
2022-10-22T02:20:06.214Z,12.75
2022-10-22T02:22:33.417Z,12.70
2022-10-22T02:25:00.509Z,12.63
2022-10-22T02:27:45.569Z,12.60
2022-10-22T02:33:10.884Z,12.50
2022-10-22T02:35:40.956Z,12.47
2022-10-22T02:38:08.402Z,12.46
2022-10-22T02:40:35.357Z,12.42
2022-10-22T02:43:04.697Z,12.37
2022-10-22T02:45:32.032Z,12.34
2022-10-22T02:47:58.848Z,12.32
2022-10-22T02:50:25.581Z,12.29
2022-10-22T02:52:52.649Z,12.24
2022-10-22T02:55:19.454Z,12.19
2022-10-22T02:57:46.032Z,12.17
2022-10-22T03:00:13.192Z,12.14
2022-10-22T03:02:39.813Z,12.11
2022-10-22T03:05:06.977Z,12.07
2022-10-22T03:07:34.416Z,12.08
2022-10-22T03:10:01.093Z,12.03
2022-10-22T03:12:27.646Z,11.97
2022-10-22T03:14:54.284Z,11.95
2022-10-22T03:17:20.856Z,11.90
2022-10-22T03:19:47.456Z,11.83
2022-10-22T03:22:19.518Z,11.75
2022-10-22T03:24:49.290Z,11.72
2022-10-22T03:27:18.550Z,11.67
2022-10-22T03:29:46.947Z,11.62
2022-10-22T03:32:13.976Z,11.58
2022-10-22T03:34:40.540Z,11.52
2022-10-22T03:37:07.088Z,11.47
2022-10-22T03:39:35.360Z,11.44
2022-10-22T03:42:03.342Z,11.42
2022-10-22T03:44:30.927Z,11.39
2022-10-22T03:47:00.208Z,11.40
2022-10-22T03:49:29.345Z,11.41
2022-10-22T03:51:55.981Z,11.40
2022-10-22T03:54:22.580Z,11.38
2022-10-22T03:56:49.216Z,11.37
2022-10-22T03:59:16.238Z,11.35
2022-10-22T04:01:42.870Z,11.30
2022-10-22T04:04:09.582Z,11.29
2022-10-22T04:06:36.128Z,11.28
2022-10-22T04:09:02.968Z,11.29
2022-10-22T04:11:29.682Z,11.27
2022-10-22T04:13:56.268Z,11.24
2022-10-22T04:16:25.158Z,11.23
2022-10-22T04:18:54.092Z,11.23
2022-10-22T04:21:20.799Z,11.20
2022-10-22T04:23:50.025Z,11.15
2022-10-22T04:26:18.017Z,11.15
2022-10-22T04:28:46.177Z,11.12
2022-10-22T04:31:15.314Z,11.09
2022-10-22T04:33:43.154Z,11.07
2022-10-22T04:36:15.096Z,11.04
2022-10-22T04:38:43.741Z,11.02
2022-10-22T04:41:17.624Z,11.01
2022-10-22T04:43:45.157Z,10.95
2022-10-22T04:46:13.264Z,10.92
2022-10-22T04:48:41.924Z,10.91
2022-10-22T04:51:11.993Z,10.91
2022-10-22T04:53:40.696Z,10.93
2022-10-22T04:56:11.679Z,10.91
2022-10-22T04:58:39.451Z,10.88
2022-10-22T05:01:11.223Z,10.87
2022-10-22T05:03:37.867Z,10.88
2022-10-22T05:06:04.647Z,10.87
2022-10-22T05:08:31.398Z,10.84
2022-10-22T05:10:58.022Z,10.82
2022-10-22T05:13:24.642Z,10.78
2022-10-22T05:15:52.095Z,10.78
2022-10-22T05:18:21.781Z,10.72
2022-10-22T05:20:49.233Z,10.66
2022-10-22T05:23:15.852Z,10.62
2022-10-22T05:25:42.471Z,10.54
2022-10-22T05:28:09.037Z,10.52
2022-10-22T05:30:35.609Z,10.46
2022-10-22T05:33:02.156Z,10.42
2022-10-22T05:35:28.697Z,10.37
2022-10-22T05:40:30.866Z,10.22
2022-10-22T05:42:58.769Z,10.19
2022-10-22T05:45:25.301Z,10.18
2022-10-22T05:47:51.817Z,10.15
2022-10-22T05:50:19.202Z,10.14
2022-10-22T05:52:45.788Z,10.12
2022-10-22T05:55:12.805Z,10.09
2022-10-22T05:57:40.433Z,10.05
2022-10-22T06:00:10.521Z,10.05
2022-10-22T06:02:39.726Z,10.01
2022-10-22T06:05:06.795Z,9.97
2022-10-22T06:07:33.902Z,9.94
2022-10-22T06:10:00.954Z,9.95
2022-10-22T06:12:27.956Z,9.92
2022-10-22T06:14:54.747Z,9.89
2022-10-22T06:17:21.440Z,9.85
2022-10-22T06:19:48.133Z,9.84
2022-10-22T06:22:14.819Z,9.81
2022-10-22T06:24:42.953Z,9.75
2022-10-22T06:27:11.824Z,9.74
2022-10-22T06:29:38.471Z,9.74
2022-10-22T06:32:05.422Z,9.74
2022-10-22T06:34:32.211Z,9.71
2022-10-22T06:36:58.847Z,9.73
2022-10-22T06:39:25.469Z,9.72
2022-10-22T06:41:52.135Z,9.70
2022-10-22T06:44:20.158Z,9.68
2022-10-22T06:46:50.147Z,9.68
2022-10-22T06:49:17.275Z,9.65
2022-10-22T06:51:44.510Z,9.63
2022-10-22T06:54:11.938Z,9.61
2022-10-22T06:56:38.654Z,9.63
2022-10-22T06:59:05.378Z,9.65
2022-10-22T07:01:34.228Z,9.65
2022-10-22T07:04:01.791Z,9.66
2022-10-22T07:06:29.342Z,9.69
2022-10-22T07:08:57.593Z,9.70
2022-10-22T07:11:46.506Z,9.75
2022-10-22T07:14:14.502Z,9.75
2022-10-22T07:16:45.779Z,9.80
2022-10-22T07:19:13.562Z,9.88
2022-10-22T07:21:40.730Z,9.97
2022-10-22T07:24:07.681Z,10.10
2022-10-22T07:26:34.810Z,10.23
2022-10-22T07:29:01.666Z,10.35
2022-10-22T07:31:28.411Z,10.48
2022-10-22T07:33:55.168Z,10.63
2022-10-22T07:36:21.827Z,10.77
2022-10-22T07:38:53.949Z,10.97
2022-10-22T07:41:20.747Z,11.23
2022-10-22T07:43:47.368Z,11.36
2022-10-22T07:46:14.149Z,11.60
2022-10-22T07:48:41.415Z,11.71
2022-10-22T07:51:08.426Z,11.77
2022-10-22T07:53:35.358Z,11.84
2022-10-22T07:56:02.178Z,11.81
2022-10-22T07:58:28.868Z,11.84
2022-10-22T08:00:57.026Z,11.87
2022-10-22T08:03:23.784Z,11.91
2022-10-22T08:05:51.860Z,11.92
2022-10-22T08:08:18.780Z,11.89
2022-10-22T08:10:47.259Z,11.98
2022-10-22T08:13:14.637Z,12.03
2022-10-22T08:18:15.127Z,12.21
2022-10-22T08:20:42.671Z,12.20
2022-10-22T08:23:09.337Z,12.24
2022-10-22T08:25:36.079Z,12.25
2022-10-22T08:28:02.840Z,12.26
2022-10-22T08:30:29.899Z,12.32
2022-10-22T08:32:56.884Z,12.35
2022-10-22T08:35:23.621Z,12.40
2022-10-22T08:37:50.669Z,12.43
2022-10-22T08:40:28.615Z,12.47
2022-10-22T08:43:04.520Z,12.57
2022-10-22T08:45:41.648Z,12.62
2022-10-22T08:48:23.466Z,12.68
2022-10-22T08:50:53.397Z,12.71
2022-10-22T08:53:25.201Z,12.72
2022-10-22T08:55:53.917Z,12.78
2022-10-22T08:58:46.202Z,12.93
2022-10-22T09:01:41.739Z,13.08
2022-10-22T09:04:30.929Z,13.19
2022-10-22T09:06:59.651Z,13.23
2022-10-22T09:09:31.526Z,13.40
2022-10-22T09:12:00.660Z,13.51
2022-10-22T09:14:27.435Z,13.50
2022-10-22T09:17:12.343Z,13.53
2022-10-22T09:20:03.801Z,14.00
2022-10-22T09:22:46.878Z,14.24
2022-10-22T09:25:28.049Z,14.23
2022-10-22T09:27:58.725Z,14.27
2022-10-22T09:30:31.587Z,14.15
2022-10-22T09:33:11.378Z,14.13
2022-10-22T09:35:51.724Z,14.16
2022-10-22T09:38:21.566Z,14.10
2022-10-22T09:40:50.743Z,14.04
2022-10-22T09:43:18.115Z,14.12
2022-10-22T09:45:46.209Z,14.14
2022-10-22T09:48:26.531Z,13.98
2022-10-22T09:51:24.724Z,14.06
2022-10-22T09:54:00.128Z,14.11
2022-10-22T09:56:55.940Z,14.14
2022-10-22T09:59:30.385Z,14.15
2022-10-22T10:02:37.514Z,14.16
2022-10-22T10:05:06.515Z,14.20
2022-10-22T10:07:35.586Z,14.32
2022-10-22T10:10:03.339Z,14.41
2022-10-22T10:12:57.408Z,14.49
2022-10-22T10:15:38.531Z,14.47
2022-10-22T10:18:20.379Z,14.68
2022-10-22T10:21:19.038Z,14.81
2022-10-22T10:23:48.532Z,14.96
2022-10-22T10:26:31.667Z,15.22
2022-10-22T10:29:07.164Z,15.11
2022-10-22T10:31:55.144Z,15.10
2022-10-22T10:34:57.365Z,15.17
2022-10-22T10:37:27.029Z,15.46
2022-10-22T10:40:30.934Z,16.04
2022-10-22T10:43:04.022Z,-147.77
2022-10-22T10:46:12.513Z,-147.77
2022-10-22T10:48:44.918Z,-147.77
2022-10-22T10:51:35.339Z,18.99
2022-10-22T10:54:18.548Z,-147.77
2022-10-22T10:56:50.524Z,-147.77
2022-10-22T10:59:43.698Z,-147.77
2022-10-22T11:02:36.716Z,-147.77
2022-10-22T11:05:15.424Z,-147.77
2022-10-22T11:07:49.925Z,-147.77
2022-10-22T11:10:27.959Z,-147.77
2022-10-22T11:13:01.997Z,-147.77
2022-10-22T11:15:33.457Z,-147.77
2022-10-22T11:18:11.889Z,-147.77
2022-10-22T11:20:50.335Z,-147.77
2022-10-22T11:23:24.787Z,-147.77
2022-10-22T11:25:51.709Z,-147.77
2022-10-22T11:28:28.809Z,-147.77
2022-10-22T11:31:01.477Z,-147.77
2022-10-22T11:33:37.981Z,-147.77
2022-10-22T11:36:08.212Z,-147.77
2022-10-22T11:38:36.415Z,-147.77
2022-10-22T11:41:13.986Z,-147.77
2022-10-22T11:44:08.512Z,-147.77
2022-10-22T11:46:53.905Z,-147.77
2022-10-22T11:49:26.627Z,-147.77
2022-10-22T11:52:23.499Z,-147.77
2022-10-22T11:54:54.244Z,-147.77
2022-10-22T11:57:26.664Z,-147.77
2022-10-22T11:59:59.119Z,18.81
2022-10-22T12:02:28.317Z,18.62
2022-10-22T12:05:17.669Z,18.59
2022-10-22T12:08:00.165Z,18.60
2022-10-22T12:10:34.083Z,18.44
2022-10-22T12:13:21.679Z,19.09
2022-10-22T12:15:51.466Z,18.89
2022-10-22T12:18:18.452Z,19.37
2022-10-22T12:20:50.865Z,19.47
2022-10-22T12:23:17.518Z,19.98
2022-10-22T12:25:44.481Z,20.15
2022-10-22T12:28:13.221Z,20.32
2022-10-22T12:30:39.761Z,20.17
2022-10-22T12:33:16.924Z,20.45
2022-10-22T12:35:45.538Z,-147.77
2022-10-22T12:38:23.596Z,-147.77
2022-10-22T12:40:54.102Z,-147.77
2022-10-22T12:43:27.491Z,-147.77
2022-10-22T12:45:54.627Z,-147.77
2022-10-22T12:48:39.176Z,-147.77
2022-10-22T12:51:09.450Z,-147.77
2022-10-22T12:53:39.342Z,-147.77
2022-10-22T12:56:10.888Z,-147.77
2022-10-22T12:58:59.457Z,-147.77
2022-10-22T13:01:29.064Z,-147.77
2022-10-22T13:04:36.062Z,-147.77
2022-10-22T13:07:19.773Z,20.45
2022-10-22T13:09:59.601Z,19.38
2022-10-22T13:12:28.343Z,19.37
2022-10-22T13:14:54.979Z,19.19
2022-10-22T13:17:39.458Z,19.09
2022-10-22T13:20:20.901Z,19.09
2022-10-22T13:23:01.147Z,19.05
2022-10-22T13:25:33.720Z,18.98
2022-10-22T13:28:04.164Z,18.99
2022-10-22T13:30:34.484Z,19.00
2022-10-22T13:33:04.063Z,19.00
2022-10-22T13:35:33.912Z,18.87
2022-10-22T13:38:01.211Z,18.83
2022-10-22T13:40:28.083Z,18.87
2022-10-22T13:42:54.639Z,18.96
2022-10-22T13:45:21.275Z,18.83
2022-10-22T13:47:53.347Z,18.85
2022-10-22T13:50:21.251Z,18.58
2022-10-22T13:52:52.703Z,18.67
2022-10-22T13:55:20.595Z,18.64
2022-10-22T13:57:47.575Z,18.50
2022-10-22T14:00:16.704Z,18.53
2022-10-22T14:02:44.780Z,18.59
2022-10-22T14:05:11.418Z,18.61
2022-10-22T14:07:39.073Z,18.64
2022-10-22T14:10:16.288Z,18.60
2022-10-22T14:12:42.838Z,18.72
2022-10-22T14:15:12.879Z,18.72
2022-10-22T14:17:43.096Z,18.47
2022-10-22T14:20:16.744Z,18.58
2022-10-22T14:22:43.324Z,18.38
2022-10-22T14:25:14.159Z,18.21
2022-10-22T14:27:40.900Z,18.04
2022-10-22T14:30:08.757Z,17.99
2022-10-22T14:32:35.634Z,18.27
2022-10-22T14:35:02.207Z,18.44
2022-10-22T14:37:28.841Z,18.51
2022-10-22T14:40:01.291Z,18.53
2022-10-22T14:42:29.254Z,18.55
2022-10-22T14:44:55.923Z,18.54
2022-10-22T14:47:22.554Z,18.57
2022-10-22T14:49:49.187Z,18.51
2022-10-22T14:52:15.780Z,18.45
2022-10-22T14:54:42.332Z,18.37
2022-10-22T14:57:11.457Z,18.25
2022-10-22T14:59:38.002Z,18.19
2022-10-22T15:02:04.554Z,18.13
2022-10-22T15:04:31.132Z,18.02
2022-10-22T15:06:59.141Z,17.90
2022-10-22T15:09:25.667Z,17.84
2022-10-22T15:11:52.252Z,17.68
2022-10-22T15:14:18.853Z,17.56
2022-10-22T15:16:45.620Z,17.38
2022-10-22T15:19:12.427Z,17.29
2022-10-22T15:21:39.544Z,17.22
2022-10-22T15:24:06.450Z,17.14
2022-10-22T15:26:33.700Z,17.10
2022-10-22T15:29:02.969Z,17.03
2022-10-22T15:31:51.321Z,16.97
2022-10-22T15:34:24.785Z,16.91
2022-10-22T15:36:53.857Z,16.83
2022-10-22T15:39:20.420Z,16.72
2022-10-22T15:41:48.535Z,16.63
2022-10-22T15:44:23.854Z,16.54
2022-10-22T15:49:18.614Z,16.48
2022-10-22T15:51:45.276Z,16.91
2022-10-22T15:54:15.048Z,16.38
2022-10-22T15:56:41.759Z,16.31
2022-10-22T15:59:09.940Z,16.21
2022-10-22T16:01:36.670Z,16.14
2022-10-22T16:04:04.000Z,16.09
2022-10-22T16:06:34.245Z,16.00
2022-10-22T16:09:04.399Z,16.00
2022-10-22T16:11:31.486Z,15.78
2022-10-22T16:13:59.535Z,15.69
2022-10-22T16:16:29.124Z,15.69
2022-10-22T16:18:56.084Z,15.42
2022-10-22T16:21:24.372Z,15.35
2022-10-22T16:23:51.515Z,15.28
2022-10-22T16:26:19.751Z,15.20
2022-10-22T16:28:48.216Z,15.18
2022-10-22T16:31:19.661Z,15.10
2022-10-22T16:33:49.357Z,15.03
2022-10-22T16:36:19.210Z,14.87
2022-10-22T16:38:46.591Z,14.76
2022-10-22T16:41:21.518Z,14.63
2022-10-22T16:43:50.144Z,14.52
2022-10-22T16:46:19.786Z,14.47
2022-10-22T16:48:54.079Z,14.43
2022-10-22T16:51:23.390Z,14.36
2022-10-22T16:53:54.738Z,14.33
2022-10-22T16:56:22.330Z,14.29
2022-10-22T16:58:51.465Z,14.19
2022-10-22T17:01:20.060Z,14.16
2022-10-22T17:03:47.182Z,14.08
2022-10-22T17:06:14.528Z,14.02
2022-10-22T17:08:42.164Z,13.94
2022-10-22T17:11:17.095Z,13.87
2022-10-22T17:13:49.049Z,13.82
2022-10-22T17:16:18.184Z,13.76
2022-10-22T17:21:19.109Z,13.56
2022-10-22T17:23:46.363Z,13.48
2022-10-22T17:26:22.316Z,13.44
2022-10-22T17:28:49.092Z,13.42
2022-10-22T17:31:22.672Z,13.40
2022-10-22T17:33:51.277Z,13.35
2022-10-22T17:36:19.181Z,13.29
2022-10-22T17:38:49.667Z,13.26
2022-10-22T17:41:19.191Z,13.23
2022-10-22T17:46:30.255Z,13.15
2022-10-22T17:48:59.438Z,13.10
2022-10-22T17:51:28.334Z,13.06
2022-10-22T17:53:55.056Z,13.01
2022-10-22T17:56:24.141Z,12.97
2022-10-22T17:58:50.815Z,12.92
2022-10-22T18:01:33.052Z,12.86
2022-10-22T18:04:05.503Z,12.80
2022-10-22T18:06:32.986Z,12.76
2022-10-22T18:08:59.721Z,12.71
2022-10-22T18:11:28.172Z,12.66
2022-10-22T18:13:56.863Z,12.63
2022-10-22T18:16:24.497Z,12.58
2022-10-22T18:18:53.761Z,12.56
2022-10-22T18:21:22.311Z,12.54
2022-10-22T18:23:48.912Z,12.45
2022-10-22T18:26:17.775Z,12.38
2022-10-22T18:28:45.267Z,12.34
2022-10-22T18:31:20.848Z,12.33
2022-10-22T18:33:48.141Z,12.33
2022-10-22T18:36:19.544Z,12.32
2022-10-22T18:38:53.873Z,12.31
2022-10-22T18:41:21.782Z,12.25
2022-10-22T18:43:55.753Z,12.17
2022-10-22T18:46:24.044Z,12.14
2022-10-22T18:48:53.764Z,12.11
2022-10-22T18:51:21.382Z,12.11
2022-10-22T18:54:04.524Z,12.05
2022-10-22T18:56:32.292Z,12.01
2022-10-22T18:58:58.810Z,11.97
2022-10-22T19:01:29.434Z,11.96
2022-10-22T19:03:57.140Z,11.91
2022-10-22T19:06:34.340Z,11.88
2022-10-22T19:09:04.249Z,11.88
2022-10-22T19:11:31.530Z,11.87
2022-10-22T19:13:58.430Z,11.81
2022-10-22T19:16:26.792Z,11.80
2022-10-22T19:18:59.616Z,11.75
2022-10-22T19:21:26.450Z,11.71
2022-10-22T19:23:56.166Z,11.65
2022-10-22T19:26:24.361Z,11.61
2022-10-22T19:28:51.254Z,11.56
2022-10-22T19:31:21.019Z,11.55
2022-10-22T19:33:50.392Z,11.53
2022-10-22T19:36:18.509Z,11.50
2022-10-22T19:38:47.407Z,11.47
2022-10-22T19:41:17.471Z,11.43
2022-10-22T19:43:45.493Z,11.42
2022-10-22T19:46:12.469Z,11.38
2022-10-22T19:48:39.405Z,11.36
2022-10-22T19:51:09.414Z,11.32
2022-10-22T19:53:38.647Z,11.29
2022-10-22T19:56:07.164Z,11.28
2022-10-22T19:58:34.699Z,11.23
2022-10-22T20:01:05.705Z,11.21
2022-10-22T20:03:33.106Z,11.20
2022-10-22T20:05:59.771Z,11.17
2022-10-22T20:08:26.595Z,11.12
2022-10-22T20:10:53.205Z,11.06
2022-10-22T20:13:20.135Z,11.06
2022-10-22T20:15:52.796Z,11.04
2022-10-22T20:18:22.365Z,11.00
2022-10-22T20:20:49.606Z,10.99
2022-10-22T20:23:16.320Z,10.95
2022-10-22T20:25:45.446Z,10.94
2022-10-22T20:28:13.747Z,10.89
2022-10-22T20:30:46.877Z,10.88
2022-10-22T20:33:13.770Z,10.85
2022-10-22T20:35:40.324Z,10.84
2022-10-22T20:38:08.396Z,10.82
2022-10-22T20:40:35.008Z,10.80
2022-10-22T20:43:01.995Z,10.79
2022-10-22T20:45:29.003Z,10.75
2022-10-22T20:48:02.552Z,10.75
2022-10-22T20:50:32.067Z,10.76
2022-10-22T20:52:59.470Z,10.74
2022-10-22T20:55:27.078Z,10.71
2022-10-22T20:57:54.097Z,10.70
2022-10-22T21:00:20.844Z,10.67
2022-10-22T21:02:47.640Z,10.64
2022-10-22T21:05:14.715Z,10.63
2022-10-22T21:07:41.630Z,10.59
2022-10-22T21:10:08.778Z,10.58
2022-10-22T21:12:35.492Z,10.50
2022-10-22T21:15:02.162Z,10.47
2022-10-22T21:17:28.740Z,10.45
2022-10-22T21:19:55.321Z,10.43
2022-10-22T21:22:21.884Z,10.43
2022-10-22T21:24:48.417Z,10.39
2022-10-22T21:27:14.983Z,10.33
2022-10-22T21:29:41.535Z,10.32
2022-10-22T21:32:08.227Z,10.28
2022-10-22T21:34:38.227Z,10.28
2022-10-22T21:37:05.719Z,10.27
2022-10-22T21:39:32.400Z,10.27
2022-10-22T21:41:59.014Z,10.25
2022-10-22T21:44:25.563Z,10.24
2022-10-22T21:46:52.315Z,10.23
2022-10-22T21:49:19.437Z,10.22
2022-10-22T21:51:45.985Z,10.19
2022-10-22T21:54:12.825Z,10.17
2022-10-22T21:56:40.148Z,10.18
2022-10-22T21:59:07.351Z,10.16
2022-10-22T22:01:34.630Z,10.13
2022-10-22T22:04:01.593Z,10.10
2022-10-22T22:06:33.073Z,10.10
2022-10-22T22:09:01.738Z,10.10
2022-10-22T22:11:28.822Z,10.08
2022-10-22T22:13:57.292Z,10.07
2022-10-22T22:16:31.034Z,10.05
2022-10-22T22:21:39.493Z,10.02
2022-10-22T22:24:06.790Z,10.04
2022-10-22T22:26:33.432Z,10.02
2022-10-22T22:29:00.528Z,9.97
2022-10-22T22:31:29.459Z,9.95
2022-10-22T22:34:04.800Z,9.93
2022-10-22T22:36:39.952Z,9.93
2022-10-22T22:39:10.904Z,9.90
2022-10-22T22:41:37.747Z,9.90
2022-10-22T22:44:04.668Z,9.89
2022-10-22T22:46:31.297Z,9.87
2022-10-22T22:48:57.878Z,9.84
2022-10-22T22:51:24.768Z,9.84
2022-10-22T22:53:51.402Z,9.84
2022-10-22T22:56:25.402Z,9.82
2022-10-22T22:58:52.334Z,9.81
2022-10-22T23:01:25.114Z,9.77
2022-10-22T23:04:00.353Z,9.74
2022-10-22T23:06:29.634Z,9.73
2022-10-22T23:08:56.918Z,9.73
2022-10-22T23:11:25.097Z,9.74
2022-10-22T23:13:57.276Z,9.72
2022-10-22T23:16:26.491Z,9.73
2022-10-22T23:18:54.419Z,9.72
2022-10-22T23:21:33.045Z,9.70
2022-10-22T23:24:03.280Z,9.68
2022-10-22T23:26:32.604Z,9.67
2022-10-22T23:29:06.848Z,9.66
2022-10-22T23:31:33.950Z,9.64
2022-10-22T23:34:00.498Z,9.59
2022-10-22T23:36:27.429Z,9.60
2022-10-22T23:38:54.440Z,9.59
2022-10-22T23:41:21.494Z,9.59
2022-10-22T23:43:48.019Z,9.59
2022-10-22T23:46:15.117Z,9.61
2022-10-22T23:48:41.858Z,9.54
2022-10-22T23:51:14.963Z,9.56
2022-10-22T23:53:43.962Z,9.56
2022-10-22T23:56:14.368Z,9.55
2022-10-22T23:58:41.747Z,9.57
